createdAt,value
2018-01-24T00:01:58.399Z,85.30
2018-01-24T00:04:25.929Z,85.30
2018-01-24T00:06:53.410Z,85.30
2018-01-24T00:09:20.880Z,84.90
2018-01-24T00:11:48.346Z,84.80
2018-01-24T00:14:15.846Z,84.60
2018-01-24T00:16:43.322Z,84.50
2018-01-24T00:19:10.827Z,84.40
2018-01-24T00:21:39.082Z,84.30
2018-01-24T00:24:06.553Z,84.30
2018-01-24T00:26:34.038Z,84.00
2018-01-24T00:29:01.535Z,83.90
2018-01-24T00:31:29.775Z,83.50
2018-01-24T00:33:57.246Z,83.60
2018-01-24T00:36:24.730Z,83.30
2018-01-24T00:38:52.198Z,83.20
2018-01-24T00:41:19.674Z,83.00
2018-01-24T00:43:47.162Z,83.00
2018-01-24T00:46:15.441Z,83.70
2018-01-24T00:48:42.914Z,83.10
2018-01-24T00:51:10.478Z,83.10
2018-01-24T00:53:37.954Z,83.00
2018-01-24T00:56:05.423Z,82.80
2018-01-24T00:58:33.310Z,82.90
2018-01-24T01:01:00.790Z,82.90
2018-01-24T01:03:29.059Z,83.00
2018-01-24T01:05:56.674Z,83.00
2018-01-24T01:08:24.149Z,82.80
2018-01-24T01:10:51.710Z,82.70
2018-01-24T01:13:19.194Z,82.70
2018-01-24T01:15:46.666Z,82.40
2018-01-24T01:18:14.141Z,82.20
2018-01-24T01:20:41.657Z,82.20
2018-01-24T01:23:09.226Z,82.30
2018-01-24T01:25:36.702Z,82.30
2018-01-24T01:28:04.275Z,82.30
2018-01-24T01:30:31.747Z,82.30
2018-01-24T01:33:00.066Z,81.80
2018-01-24T01:35:27.555Z,82.30
2018-01-24T01:37:55.074Z,82.30
2018-01-24T01:40:22.545Z,82.30
2018-01-24T01:42:50.040Z,82.10
2018-01-24T01:45:18.279Z,82.10
2018-01-24T01:47:45.767Z,82.10
2018-01-24T01:50:13.253Z,82.00
2018-01-24T01:52:41.489Z,82.00
2018-01-24T01:55:08.963Z,82.00
2018-01-24T01:57:36.503Z,82.60
2018-01-24T02:00:04.076Z,81.90
2018-01-24T02:04:24.466Z,81.70
2018-01-24T02:06:51.952Z,81.80
2018-01-24T02:09:20.195Z,82.50
2018-01-24T02:11:47.694Z,81.70
2018-01-24T02:14:15.941Z,81.70
2018-01-24T02:16:43.431Z,81.70
2018-01-24T02:19:10.918Z,81.70
2018-01-24T02:21:38.382Z,81.60
2018-01-24T02:24:05.858Z,81.60
2018-01-24T02:26:35.178Z,81.70
2018-01-24T02:29:02.742Z,81.80
2018-01-24T02:31:30.218Z,81.80
2018-01-24T02:33:57.786Z,82.00
2018-01-24T02:36:25.258Z,82.00
2018-01-24T02:39:04.711Z,82.00
2018-01-24T02:41:32.186Z,82.10
2018-01-24T02:43:59.757Z,82.20
2018-01-24T02:46:27.249Z,82.30
2018-01-24T02:48:55.492Z,82.50
2018-01-24T02:51:22.962Z,82.50
2018-01-24T02:53:50.763Z,82.50
2018-01-24T02:56:18.342Z,82.50
2018-01-24T02:58:45.959Z,82.50
2018-01-24T03:01:14.191Z,82.60
2018-01-24T03:03:41.662Z,82.60
2018-01-24T03:06:09.130Z,82.70
2018-01-24T03:08:36.617Z,82.80
2018-01-24T03:11:04.863Z,82.80
2018-01-24T03:13:32.779Z,82.80
2018-01-24T03:16:00.659Z,82.90
2018-01-24T03:18:28.130Z,83.00
2018-01-24T03:20:55.606Z,82.90
2018-01-24T03:23:24.226Z,82.80
2018-01-24T03:25:51.797Z,82.80
2018-01-24T03:28:20.046Z,82.70
2018-01-24T03:30:48.643Z,83.50
2018-01-24T03:33:16.114Z,82.70
2018-01-24T03:35:43.681Z,82.80
2018-01-24T03:38:11.507Z,82.90
2018-01-24T03:40:38.974Z,83.00
2018-01-24T03:43:06.446Z,82.90
2018-01-24T03:45:34.013Z,83.00
2018-01-24T03:48:01.579Z,83.00
2018-01-24T03:50:29.810Z,82.90
2018-01-24T03:52:57.311Z,82.80
2018-01-24T03:55:24.882Z,82.80
2018-01-24T03:57:52.366Z,82.70
2018-01-24T04:00:20.606Z,82.70
2018-01-24T04:02:48.114Z,82.60
2018-01-24T04:05:15.698Z,82.70
2018-01-24T04:07:43.266Z,82.60
2018-01-24T04:10:11.050Z,82.80
2018-01-24T04:12:39.322Z,82.80
2018-01-24T04:15:06.799Z,82.70
2018-01-24T04:17:34.292Z,82.80
2018-01-24T04:20:02.559Z,82.80
2018-01-24T04:22:30.361Z,82.70
2018-01-24T04:24:57.835Z,82.80
2018-01-24T04:27:25.370Z,82.70
2018-01-24T04:29:52.851Z,82.80
2018-01-24T04:32:20.348Z,82.70
2018-01-24T04:34:48.594Z,82.90
2018-01-24T04:37:16.066Z,82.70
2018-01-24T04:39:43.538Z,82.80
2018-01-24T04:42:11.110Z,82.80
2018-01-24T04:44:38.586Z,82.80
2018-01-24T04:47:06.362Z,83.00
2018-01-24T04:49:34.598Z,82.90
2018-01-24T04:52:02.070Z,82.90
2018-01-24T04:54:29.595Z,82.80
2018-01-24T04:56:57.073Z,82.80
2018-01-24T04:59:25.330Z,83.00
2018-01-24T05:01:52.801Z,83.00
2018-01-24T05:04:20.270Z,82.90
2018-01-24T05:06:47.774Z,82.90
2018-01-24T05:09:16.022Z,82.90
2018-01-24T05:11:43.519Z,83.00
2018-01-24T05:14:10.997Z,82.90
2018-01-24T05:16:39.234Z,82.90
2018-01-24T05:19:06.714Z,82.90
2018-01-24T05:21:34.767Z,82.80
2018-01-24T05:24:02.597Z,82.70
2018-01-24T05:26:30.078Z,82.60
2018-01-24T05:28:57.548Z,82.40
2018-01-24T05:31:25.042Z,82.30
2018-01-24T05:33:53.310Z,82.60
2018-01-24T05:36:20.882Z,82.50
2018-01-24T05:38:48.446Z,82.70
2018-01-24T05:41:15.918Z,82.90
2018-01-24T05:43:43.403Z,83.10
2018-01-24T05:46:11.643Z,83.70
2018-01-24T05:48:39.134Z,83.70
2018-01-24T05:51:06.754Z,83.70
2018-01-24T05:53:34.328Z,83.60
2018-01-24T05:56:01.817Z,83.80
2018-01-24T05:58:29.294Z,84.10
2018-01-24T06:00:56.779Z,84.30
2018-01-24T06:03:24.258Z,84.50
2018-01-24T06:05:51.779Z,84.70
2018-01-24T06:08:19.263Z,85.10
2018-01-24T06:10:46.743Z,85.10
2018-01-24T06:13:14.234Z,85.10
2018-01-24T06:15:41.738Z,85.40
2018-01-24T06:18:09.982Z,85.70
2018-01-24T06:20:37.466Z,85.70
2018-01-24T06:23:04.942Z,86.00
2018-01-24T06:25:32.726Z,86.20
2018-01-24T06:28:00.202Z,86.20
2018-01-24T06:30:27.770Z,86.50
2018-01-24T06:32:55.250Z,86.90
2018-01-24T06:35:22.726Z,87.10
2018-01-24T06:37:51.074Z,86.90
2018-01-24T06:40:18.530Z,86.50
2018-01-24T06:42:46.022Z,86.20
2018-01-24T06:45:53.722Z,86.50
2018-01-24T06:48:21.193Z,86.80
2018-01-24T06:50:48.682Z,87.10
2018-01-24T06:53:16.151Z,87.30
2018-01-24T06:55:43.945Z,87.40
2018-01-24T06:58:11.539Z,87.70
2018-01-24T07:00:39.778Z,87.80
2018-01-24T07:03:07.270Z,87.70
2018-01-24T07:05:34.738Z,87.80
2018-01-24T07:08:02.328Z,88.00
2018-01-24T07:10:29.902Z,87.70
2018-01-24T07:13:09.527Z,87.20
2018-01-24T07:15:36.994Z,87.30
2018-01-24T07:18:04.462Z,87.40
2018-01-24T07:20:31.955Z,87.20
2018-01-24T07:22:59.525Z,87.10
2018-01-24T07:25:27.103Z,87.00
2018-01-24T07:27:54.575Z,86.80
2018-01-24T07:30:22.138Z,86.70
2018-01-24T07:32:49.614Z,86.70
2018-01-24T07:35:17.497Z,86.60
2018-01-24T07:37:45.070Z,86.60
2018-01-24T07:40:12.574Z,86.40
2018-01-24T07:42:40.058Z,86.30
2018-01-24T07:45:07.533Z,86.20
2018-01-24T07:47:35.023Z,86.10
2018-01-24T07:50:02.514Z,86.10
2018-01-24T07:52:30.298Z,86.00
2018-01-24T07:54:57.801Z,85.80
2018-01-24T07:57:25.334Z,85.50
2018-01-24T07:59:52.821Z,85.50
2018-01-24T08:02:21.062Z,85.30
2018-01-24T08:04:48.863Z,85.30
2018-01-24T08:07:17.158Z,84.80
2018-01-24T08:09:44.771Z,84.80
2018-01-24T08:12:12.260Z,84.70
2018-01-24T08:14:39.778Z,84.60
2018-01-24T08:17:07.355Z,84.40
2018-01-24T08:19:34.837Z,84.20
2018-01-24T08:22:03.153Z,84.10
2018-01-24T08:24:31.362Z,83.70
2018-01-24T08:26:58.866Z,83.60
2018-01-24T08:29:26.349Z,83.50
2018-01-24T08:31:54.586Z,83.30
2018-01-24T08:34:22.090Z,83.30
2018-01-24T08:36:49.562Z,83.20
2018-01-24T08:39:17.046Z,83.20
2018-01-24T08:41:45.286Z,83.40
2018-01-24T08:44:12.784Z,82.90
2018-01-24T08:46:40.274Z,82.70
2018-01-24T08:49:08.510Z,83.60
2018-01-24T08:51:35.998Z,82.90
2018-01-24T08:54:03.468Z,82.50
2018-01-24T08:56:30.966Z,82.20
2018-01-24T08:58:58.447Z,82.00
2018-01-24T09:01:26.723Z,82.90
2018-01-24T09:03:54.214Z,82.10
2018-01-24T09:06:22.481Z,82.20
2018-01-24T09:08:51.462Z,82.20
2018-01-24T09:11:18.950Z,82.20
2018-01-24T09:13:47.934Z,82.10
2018-01-24T09:16:15.471Z,82.10
2018-01-24T09:18:42.946Z,81.80
2018-01-24T09:21:10.417Z,81.80
2018-01-24T09:23:37.902Z,81.50
2018-01-24T09:26:05.414Z,81.60
2018-01-24T09:28:32.986Z,81.20
2018-01-24T09:31:00.459Z,81.00
2018-01-24T09:33:27.966Z,80.00
2018-01-24T09:35:55.516Z,80.20
2018-01-24T09:38:23.075Z,80.00
2018-01-24T09:40:50.567Z,80.10
2018-01-24T09:43:18.811Z,80.20
2018-01-24T09:45:46.318Z,80.20
2018-01-24T09:48:14.562Z,81.10
2018-01-24T09:50:42.062Z,80.30
2018-01-24T09:53:09.651Z,79.90
2018-01-24T09:55:37.269Z,79.80
2018-01-24T09:58:04.789Z,80.00
2018-01-24T10:00:32.353Z,79.80
2018-01-24T10:02:59.837Z,80.10
2018-01-24T10:05:28.081Z,80.00
2018-01-24T10:07:55.562Z,79.90
2018-01-24T10:10:23.034Z,79.90
2018-01-24T10:12:50.626Z,80.20
2018-01-24T10:15:18.132Z,79.80
2018-01-24T10:17:46.386Z,79.90
2018-01-24T10:20:13.884Z,79.90
2018-01-24T10:22:42.182Z,79.90
2018-01-24T10:25:09.661Z,79.80
2018-01-24T10:29:08.442Z,78.90
2018-01-24T10:32:47.694Z,77.80
2018-01-24T10:35:15.477Z,76.90
2018-01-24T10:37:42.950Z,77.00
2018-01-24T10:40:11.190Z,78.10
2018-01-24T10:42:38.666Z,77.20
2018-01-24T10:45:06.203Z,77.20
2018-01-24T10:47:33.775Z,77.70
2018-01-24T10:50:01.348Z,77.50
2018-01-24T10:52:29.211Z,77.50
2018-01-24T10:54:57.446Z,77.60
2018-01-24T10:57:24.914Z,77.50
2018-01-24T10:59:52.407Z,77.30
2018-01-24T11:02:19.879Z,77.50
2018-01-24T11:04:47.362Z,77.70
2018-01-24T11:07:14.832Z,78.20
2018-01-24T11:09:42.322Z,77.40
2018-01-24T11:12:10.625Z,77.60
2018-01-24T11:14:38.868Z,77.80
2018-01-24T11:17:06.387Z,77.70
2018-01-24T11:19:33.964Z,77.50
2018-01-24T11:22:01.494Z,77.70
2018-01-24T11:24:28.969Z,77.30
2018-01-24T11:26:56.462Z,77.00
2018-01-24T11:29:24.693Z,77.00
2018-01-24T11:31:52.166Z,77.00
2018-01-24T11:34:19.650Z,76.70
2018-01-24T11:36:47.140Z,76.00
2018-01-24T11:39:14.627Z,75.40
2018-01-24T11:41:42.867Z,74.80
2018-01-24T11:44:10.703Z,74.80
2018-01-24T11:48:02.489Z,72.40
2018-01-24T11:52:11.779Z,71.00
2018-01-24T11:54:39.354Z,70.90
2018-01-24T11:57:06.837Z,72.10
2018-01-24T11:59:34.402Z,73.00
2018-01-24T12:02:01.907Z,72.80
2018-01-24T12:07:10.458Z,70.50
2018-01-24T12:09:38.663Z,70.80
2018-01-24T12:12:06.491Z,70.80
2018-01-24T12:14:34.066Z,71.30
2018-01-24T12:17:01.644Z,71.90
2018-01-24T12:19:29.131Z,72.50
2018-01-24T12:21:57.375Z,73.90
2018-01-24T12:24:24.863Z,73.90
2018-01-24T12:26:52.342Z,73.40
2018-01-24T12:29:19.835Z,73.70
2018-01-24T12:31:48.078Z,74.70
2018-01-24T12:34:15.570Z,74.50
2018-01-24T12:36:43.058Z,74.70
2018-01-24T12:39:11.294Z,75.20
2018-01-24T12:41:38.778Z,75.20
2018-01-24T12:44:06.270Z,75.70
2018-01-24T12:46:33.878Z,75.20
2018-01-24T12:49:01.347Z,74.90
2018-01-24T12:51:28.921Z,74.50
2018-01-24T12:53:56.480Z,74.00
2018-01-24T12:56:24.721Z,73.90
2018-01-24T12:58:52.214Z,73.90
2018-01-24T13:01:19.702Z,73.40
2018-01-24T13:03:48.230Z,73.50
2018-01-24T13:06:15.742Z,73.50
2018-01-24T13:08:43.237Z,73.80
2018-01-24T13:11:11.490Z,74.10
2018-01-24T13:13:38.960Z,74.10
2018-01-24T13:16:06.446Z,73.60
2018-01-24T13:18:33.943Z,73.40
2018-01-24T13:21:02.202Z,72.70
2018-01-24T13:23:29.674Z,72.50
2018-01-24T13:25:57.287Z,72.60
2018-01-24T13:28:24.865Z,72.10
2018-01-24T13:30:52.338Z,71.80
2018-01-24T13:33:19.838Z,71.90
2018-01-24T13:35:47.314Z,71.80
2018-01-24T13:38:14.822Z,71.80
2018-01-24T13:40:42.323Z,71.60
2018-01-24T13:43:09.807Z,71.20
2018-01-24T13:45:37.358Z,71.20
2018-01-24T13:48:04.828Z,71.10
2018-01-24T13:50:32.314Z,71.20
2018-01-24T13:52:59.839Z,71.30
2018-01-24T13:55:27.318Z,71.80
2018-01-24T13:57:54.912Z,71.20
2018-01-24T14:00:22.485Z,71.30
2018-01-24T14:02:50.026Z,71.60
2018-01-24T14:05:17.493Z,71.70
2018-01-24T14:07:45.058Z,71.60
2018-01-24T14:10:12.534Z,71.70
2018-01-24T14:12:40.022Z,71.20
2018-01-24T14:15:08.290Z,71.00
2018-01-24T14:17:36.065Z,71.00
2018-01-24T14:20:05.042Z,71.50
2018-01-24T14:22:32.522Z,71.60
2018-01-24T14:25:00.007Z,71.70
2018-01-24T14:27:27.478Z,72.00
2018-01-24T14:29:54.965Z,72.10
2018-01-24T14:32:23.216Z,72.10
2018-01-24T14:34:51.056Z,71.20
2018-01-24T14:37:18.729Z,71.40
2018-01-24T14:39:46.195Z,71.60
2018-01-24T14:42:13.734Z,71.80
2018-01-24T14:44:41.244Z,72.10
2018-01-24T14:47:08.778Z,72.40
2018-01-24T14:49:36.284Z,72.30
2018-01-24T14:52:03.818Z,72.20
2018-01-24T14:54:31.286Z,72.30
2018-01-24T14:56:58.863Z,72.80
2018-01-24T14:59:26.471Z,72.70
2018-01-24T15:01:54.022Z,73.00
2018-01-24T15:04:22.343Z,72.70
2018-01-24T15:06:49.822Z,72.70
2018-01-24T15:09:17.334Z,72.80
2018-01-24T15:11:44.910Z,73.40
2018-01-24T15:14:12.415Z,73.30
2018-01-24T15:16:39.955Z,73.20
2018-01-24T15:19:07.431Z,73.10
2018-01-24T15:21:34.914Z,73.10
2018-01-24T15:24:03.154Z,72.80
2018-01-24T15:26:30.686Z,72.80
2018-01-24T15:28:58.946Z,72.50
2018-01-24T15:31:26.414Z,72.40
2018-01-24T15:33:53.918Z,72.60
2018-01-24T15:36:21.402Z,72.40
2018-01-24T15:38:48.886Z,72.70
2018-01-24T15:41:16.394Z,72.80
2018-01-24T15:43:43.966Z,72.90
2018-01-24T15:46:11.530Z,73.20
2018-01-24T15:48:39.007Z,73.00
2018-01-24T15:51:06.576Z,73.10
2018-01-24T15:53:34.150Z,73.20
2018-01-24T15:56:01.638Z,73.20
2018-01-24T15:58:29.905Z,73.60
2018-01-24T16:00:57.477Z,73.60
2018-01-24T16:03:24.954Z,73.60
2018-01-24T16:05:52.426Z,73.60
2018-01-24T16:11:00.835Z,73.20
2018-01-24T16:13:28.314Z,73.00
2018-01-24T16:15:55.797Z,72.90
2018-01-24T16:18:23.608Z,73.00
2018-01-24T16:20:51.854Z,72.60
2018-01-24T16:23:19.335Z,72.50
2018-01-24T16:25:46.822Z,72.60
2018-01-24T16:28:14.327Z,72.50
2018-01-24T16:30:42.579Z,72.60
2018-01-24T16:33:10.054Z,72.60
2018-01-24T16:35:37.830Z,72.80
2018-01-24T16:38:05.397Z,72.90
2018-01-24T16:40:32.875Z,73.20
2018-01-24T16:43:00.366Z,73.50
2018-01-24T16:45:28.667Z,73.50
2018-01-24T16:47:56.154Z,73.40
2018-01-24T16:50:23.630Z,73.40
2018-01-24T16:52:51.179Z,73.40
2018-01-24T16:55:18.856Z,73.20
2018-01-24T16:57:46.349Z,73.90
2018-01-24T17:00:13.858Z,73.20
2018-01-24T17:02:41.326Z,73.20
2018-01-24T17:05:08.817Z,73.10
2018-01-24T17:07:37.087Z,73.80
2018-01-24T17:10:05.346Z,73.40
2018-01-24T17:12:32.814Z,73.40
2018-01-24T17:15:00.355Z,73.40
2018-01-24T17:17:27.839Z,73.40
2018-01-24T17:19:55.321Z,73.40
2018-01-24T17:22:22.810Z,73.20
2018-01-24T17:24:50.278Z,73.30
2018-01-24T17:27:17.750Z,73.20
2018-01-24T17:29:45.236Z,73.00
2018-01-24T17:32:12.702Z,73.30
2018-01-24T17:34:40.586Z,73.20
2018-01-24T17:37:08.194Z,73.30
2018-01-24T17:39:35.767Z,73.60
2018-01-24T17:42:03.261Z,74.10
2018-01-24T17:44:30.730Z,74.20
2018-01-24T17:46:58.214Z,74.40
2018-01-24T17:49:25.694Z,74.50
2018-01-24T17:51:53.183Z,74.50
2018-01-24T17:54:21.478Z,74.50
2018-01-24T17:56:49.042Z,74.40
2018-01-24T17:59:16.530Z,74.20
2018-01-24T18:01:44.767Z,74.10
2018-01-24T18:04:12.262Z,74.00
2018-01-24T18:06:39.781Z,74.00
2018-01-24T18:09:07.623Z,74.10
2018-01-24T18:11:35.875Z,74.00
2018-01-24T18:14:03.349Z,74.10
2018-01-24T18:16:30.827Z,73.80
2018-01-24T18:18:58.307Z,73.50
2018-01-24T18:21:25.787Z,74.00
2018-01-24T18:23:53.265Z,72.70
2018-01-24T18:26:20.754Z,71.70
2018-01-24T18:28:49.006Z,71.90
2018-01-24T18:31:16.479Z,71.80
2018-01-24T18:33:43.959Z,71.80
2018-01-24T18:36:11.438Z,71.80
2018-01-24T18:38:39.006Z,71.50
2018-01-24T18:41:06.478Z,71.50
2018-01-24T18:43:33.963Z,71.40
2018-01-24T18:46:02.236Z,70.60
2018-01-24T18:48:29.831Z,70.60
2018-01-24T18:52:52.186Z,71.40
2018-01-24T18:55:19.681Z,70.20
2018-01-24T18:57:47.162Z,70.30
2018-01-24T19:00:14.685Z,70.00
2018-01-24T19:02:42.256Z,70.10
2018-01-24T19:05:09.750Z,69.70
2018-01-24T19:07:38.022Z,69.60
2018-01-24T19:10:05.491Z,69.60
2018-01-24T19:12:32.975Z,69.30
2018-01-24T19:15:00.573Z,69.80
2018-01-24T19:17:28.054Z,69.50
2018-01-24T19:19:55.608Z,69.60
2018-01-24T19:22:23.779Z,69.70
2018-01-24T19:24:52.038Z,69.00
2018-01-24T19:27:19.548Z,69.00
2018-01-24T19:29:47.094Z,68.90
2018-01-24T19:32:14.577Z,69.00
2018-01-24T19:34:42.867Z,68.70
2018-01-24T19:37:10.334Z,68.60
2018-01-24T19:39:37.910Z,68.70
2018-01-24T19:42:05.388Z,68.80
2018-01-24T19:44:33.658Z,68.60
2018-01-24T19:47:01.152Z,68.60
2018-01-24T19:49:29.390Z,68.30
2018-01-24T19:51:57.219Z,68.30
2018-01-24T19:54:24.802Z,68.20
2018-01-24T19:56:52.325Z,68.00
2018-01-24T19:59:20.750Z,68.40
2018-01-24T20:01:49.061Z,69.20
2018-01-24T20:04:16.582Z,69.00
2018-01-24T20:06:44.065Z,68.50
2018-01-24T20:09:12.658Z,68.50
2018-01-24T20:11:40.134Z,68.50
2018-01-24T20:14:07.612Z,68.70
2018-01-24T20:16:35.902Z,69.00
2018-01-24T20:19:04.169Z,69.00
2018-01-24T20:21:32.464Z,69.20
2018-01-24T20:23:59.999Z,69.10
2018-01-24T20:26:27.503Z,68.90
2018-01-24T20:28:54.970Z,69.00
2018-01-24T20:31:22.458Z,69.00
2018-01-24T20:33:49.946Z,70.10
2018-01-24T20:36:18.254Z,70.00
2018-01-24T20:38:45.750Z,69.90
2018-01-24T20:41:13.291Z,70.20
2018-01-24T20:43:41.142Z,70.20
2018-01-24T20:46:09.471Z,70.70
2018-01-24T20:48:37.034Z,70.50
2018-01-24T20:51:04.564Z,70.70
2018-01-24T20:53:32.080Z,70.60
2018-01-24T20:55:59.603Z,70.80
2018-01-24T20:58:27.127Z,70.60
2018-01-24T21:00:55.077Z,70.70
2018-01-24T21:03:22.664Z,70.50
2018-01-24T21:05:50.210Z,70.30
2018-01-24T21:08:18.516Z,70.30
2018-01-24T21:10:46.022Z,70.20
2018-01-24T21:13:13.608Z,70.00
2018-01-24T21:15:41.132Z,70.10
2018-01-24T21:18:09.400Z,70.40
2018-01-24T21:20:37.711Z,70.30
2018-01-24T21:23:06.004Z,70.40
2018-01-24T21:25:33.526Z,70.40
2018-01-24T21:28:01.049Z,70.40
2018-01-24T21:30:40.438Z,70.60
2018-01-24T21:33:19.853Z,70.60
2018-01-24T21:35:59.234Z,70.70
2018-01-24T21:38:26.758Z,70.60
2018-01-24T21:40:55.091Z,70.90
2018-01-24T21:43:22.623Z,70.80
2018-01-24T21:45:51.012Z,70.80
2018-01-24T21:48:19.323Z,71.00
2018-01-24T21:50:47.836Z,71.60
2018-01-24T21:53:15.360Z,70.90
2018-01-24T21:55:43.642Z,71.10
2018-01-24T21:58:12.067Z,71.10
2018-01-24T22:00:39.597Z,71.10
2018-01-24T22:03:08.251Z,71.30
2018-01-24T22:05:35.789Z,71.30
2018-01-24T22:08:04.810Z,71.80
2018-01-24T22:10:32.321Z,71.30
2018-01-24T22:12:59.886Z,71.20
2018-01-24T22:15:27.536Z,71.30
2018-01-24T22:17:55.122Z,71.20
2018-01-24T22:20:23.025Z,71.40
2018-01-24T22:22:51.458Z,71.50
2018-01-24T22:25:19.735Z,71.50
2018-01-24T22:27:47.262Z,71.40
2018-01-24T22:30:14.734Z,71.30
2018-01-24T22:32:42.237Z,71.40
2018-01-24T22:35:09.710Z,71.50
2018-01-24T22:37:37.234Z,71.70
2018-01-24T22:40:05.466Z,71.70
2018-01-24T22:42:33.710Z,71.50
2018-01-24T22:45:01.198Z,71.50
2018-01-24T22:47:28.670Z,71.70
2018-01-24T22:49:56.161Z,71.70
2018-01-24T22:52:24.354Z,71.70
2018-01-24T22:54:51.830Z,71.70
2018-01-24T22:57:19.322Z,72.10
2018-01-24T22:59:46.861Z,72.00
2018-01-24T23:02:14.351Z,72.00
2018-01-24T23:04:42.589Z,71.80
2018-01-24T23:07:10.091Z,71.80
2018-01-24T23:09:37.571Z,71.90
2018-01-24T23:12:05.038Z,72.10
2018-01-24T23:14:32.524Z,72.30
2018-01-24T23:17:00.790Z,72.20
2018-01-24T23:19:28.280Z,72.20
2018-01-24T23:21:56.552Z,72.20
2018-01-24T23:24:24.028Z,72.20
2018-01-24T23:26:51.510Z,72.20
2018-01-24T23:29:19.911Z,72.40
2018-01-24T23:31:47.390Z,72.20
2018-01-24T23:34:14.870Z,72.20
2018-01-24T23:36:42.395Z,72.20
2018-01-24T23:39:09.887Z,72.30
2018-01-24T23:41:38.188Z,72.60
2018-01-24T23:44:06.434Z,72.60
2018-01-24T23:46:33.906Z,72.60
2018-01-24T23:49:01.395Z,72.50
2018-01-24T23:51:28.956Z,72.60
2018-01-24T23:53:56.738Z,72.80
2018-01-24T23:56:25.723Z,72.90
2018-01-24T23:58:53.194Z,72.80
